Time;durP1;ratioP1;P1;durP2;ratioP2;P2;SDS_P1;SDS_P2;PMS_P1;PMS_P2;Temp;Humidity;BMP_temperature;BMP_pressure;BME280_temperature;BME280_humidity;BME280_pressure;Samples;Min_cycle;Max_cycle;Signal;HPM_P1;HPM_P2
2022/03/31 00:00:20;;;;;;;;;;;6.20;94.40;;;;;;5063313;28;19992;-67
2022/03/31 00:02:45;;;;;;;;;;;6.10;94.40;;;;;;5062825;28;19915;-67
2022/03/31 00:05:11;;;;;;;;;;;6.20;94.50;;;;;;5062149;28;19912;-66
2022/03/31 00:07:53;;;;;;;;;;;6.20;94.30;;;;;;5062894;28;19941;-66
2022/03/31 00:10:20;;;;;;;;;;;6.10;94.30;;;;;;5063027;28;20163;-66
2022/03/31 00:12:47;;;;;;;;;;;6.10;94.50;;;;;;5062790;28;19971;-66
2022/03/31 00:15:12;;;;;;;;;;;6.20;94.50;;;;;;5062896;28;19916;-66
2022/03/31 00:17:38;;;;;;;;;;;6.10;94.40;;;;;;5062227;28;20418;-66
2022/03/31 00:20:04;;;;;;;;;;;6.10;94.40;;;;;;5062807;28;20107;-66
2022/03/31 00:32:37;;;;;;;;;;;6.10;94.60;;;;;;5042628;28;19999;-68
2022/03/31 00:35:03;;;;;;;;;;;6.00;94.80;;;;;;5042845;28;19913;-66
2022/03/31 00:37:39;;;;;;;;;;;6.10;94.50;;;;;;5046080;28;19940;-66
2022/03/31 00:40:06;;;;;;;;;;;6.10;94.70;;;;;;5046584;28;19955;-66
2022/03/31 00:42:37;;;;;;;;;;;6.10;94.60;;;;;;5046103;28;19924;-66
2022/03/31 00:45:03;;;;;;;;;;;6.10;94.60;;;;;;5029111;28;20114;-66
2022/03/31 00:47:29;;;;;;;;;;;6.10;94.60;;;;;;5046142;28;20093;-66
2022/03/31 00:49:55;;;;;;;;;;;6.10;94.50;;;;;;5028804;28;19916;-67
2022/03/31 00:52:21;;;;;;;;;;;6.10;94.60;;;;;;5046101;28;19976;-67
2022/03/31 00:54:46;;;;;;;;;;;6.10;94.60;;;;;;5028646;28;20234;-67
2022/03/31 00:57:12;;;;;;;;;;;6.10;94.50;;;;;;5028628;28;20270;-67
2022/03/31 00:59:38;;;;;;;;;;;6.10;94.50;;;;;;5028782;28;19909;-67
2022/03/31 01:02:04;;;;;;;;;;;6.10;94.50;;;;;;5062535;28;19913;-68
2022/03/31 01:04:30;;;;;;;;;;;6.10;94.30;;;;;;5065272;28;19944;-66
2022/03/31 01:06:56;;;;;;;;;;;6.10;94.50;;;;;;5048366;28;19974;-67
2022/03/31 01:09:22;;;;;;;;;;;6.10;94.50;;;;;;5066068;28;19909;-67
2022/03/31 01:11:47;;;;;;;;;;;6.10;94.80;;;;;;5065737;28;20370;-67
2022/03/31 01:14:13;;;;;;;;;;;6.20;94.70;;;;;;5065373;28;20146;-66
2022/03/31 01:16:39;;;;;;;;;;;6.20;94.50;;;;;;5065882;28;19915;-66
2022/03/31 01:19:06;;;;;;;;;;;6.20;94.40;;;;;;5065359;28;19909;-67
2022/03/31 01:21:38;;;;;;;;;;;6.20;94.60;;;;;;5065488;28;19913;-67
2022/03/31 01:24:06;;;;;;;;;;;6.20;94.70;;;;;;5065635;28;19963;-66
2022/03/31 01:26:34;;;;;;;;;;;6.10;94.50;;;;;;5065607;28;19954;-66
2022/03/31 01:29:00;;;;;;;;;;;6.10;94.70;;;;;;5065688;28;19921;-66
2022/03/31 01:31:26;;;;;;;;;;;6.10;94.70;;;;;;5064670;28;19915;-67
2022/03/31 01:33:53;;;;;;;;;;;6.10;94.70;;;;;;5065419;28;19916;-66
2022/03/31 01:36:19;;;;;;;;;;;6.10;94.90;;;;;;5065245;28;19920;-66
2022/03/31 01:38:46;;;;;;;;;;;6.10;94.90;;;;;;5065571;28;19909;-66
2022/03/31 01:41:12;;;;;;;;;;;6.10;94.90;;;;;;5065131;28;19966;-66
2022/03/31 01:43:37;;;;;;;;;;;6.20;95.00;;;;;;5065429;28;19909;-66
2022/03/31 01:46:03;;;;;;;;;;;6.20;95.00;;;;;;5065301;28;19909;-67
2022/03/31 01:48:30;;;;;;;;;;;6.10;94.90;;;;;;5064004;28;19927;-67
2022/03/31 01:50:57;;;;;;;;;;;6.10;95.00;;;;;;5064645;28;19954;-67
2022/03/31 01:53:22;;;;;;;;;;;6.10;95.00;;;;;;5065159;28;20251;-67
2022/03/31 01:55:48;;;;;;;;;;;6.20;95.00;;;;;;5065255;28;19909;-67
2022/03/31 01:58:14;;;;;;;;;;;6.20;94.80;;;;;;5064950;28;19916;-67
2022/03/31 02:00:40;;;;;;;;;;;6.20;94.90;;;;;;5064087;28;19913;-67
2022/03/31 02:03:05;;;;;;;;;;;6.10;95.10;;;;;;5065005;28;19979;-67
2022/03/31 02:05:31;;;;;;;;;;;6.10;95.10;;;;;;5064576;28;19909;-67
2022/03/31 02:07:57;;;;;;;;;;;6.20;95.10;;;;;;5064813;28;19980;-67
2022/03/31 02:10:25;;;;;;;;;;;6.20;95.00;;;;;;5064997;28;19931;-67
2022/03/31 02:12:51;;;;;;;;;;;6.10;95.00;;;;;;5064540;28;20204;-66
2022/03/31 02:15:17;;;;;;;;;;;6.20;95.00;;;;;;5064770;28;19984;-67
2022/03/31 02:17:42;;;;;;;;;;;6.30;94.80;;;;;;5064837;28;19913;-67
2022/03/31 02:20:08;;;;;;;;;;;6.20;95.10;;;;;;5064325;28;19909;-67
2022/03/31 02:22:34;;;;;;;;;;;6.20;95.20;;;;;;5064329;28;19909;-65
2022/03/31 02:25:00;;;;;;;;;;;6.20;95.30;;;;;;5064554;28;19916;-65
2022/03/31 02:27:26;;;;;;;;;;;6.20;95.40;;;;;;5064420;28;19915;-65
2022/03/31 02:29:52;;;;;;;;;;;6.20;95.50;;;;;;5064421;28;19909;-64
2022/03/31 02:32:17;;;;;;;;;;;6.20;95.70;;;;;;5064067;28;19980;-65
2022/03/31 02:34:43;;;;;;;;;;;6.00;96.10;;;;;;5064062;28;19980;-65
2022/03/31 02:37:08;;;;;;;;;;;6.10;96.30;;;;;;5064194;28;19976;-65
2022/03/31 02:39:34;;;;;;;;;;;6.10;96.50;;;;;;5064226;28;19972;-65
2022/03/31 02:42:03;;;;;;;;;;;6.10;96.60;;;;;;5063865;28;19920;-65
2022/03/31 02:44:29;;;;;;;;;;;6.10;96.70;;;;;;5064129;28;19908;-64
2022/03/31 02:46:54;;;;;;;;;;;6.10;96.90;;;;;;5063856;28;19920;-65
2022/03/31 02:49:20;;;;;;;;;;;6.10;96.90;;;;;;5063711;28;19909;-64
2022/03/31 02:51:46;;;;;;;;;;;6.10;97.00;;;;;;5063761;28;20208;-64
2022/03/31 02:56:56;;;;;;;;;;;6.10;97.20;;;;;;5048473;28;19915;-64
2022/03/31 02:59:22;;;;;;;;;;;6.00;97.20;;;;;;5063555;28;19909;-65
2022/03/31 03:01:48;;;;;;;;;;;6.00;97.30;;;;;;5063352;28;20246;-64
2022/03/31 03:04:13;;;;;;;;;;;6.00;97.40;;;;;;5062813;28;19909;-65
2022/03/31 03:06:39;;;;;;;;;;;6.00;97.60;;;;;;5063359;28;19957;-65
2022/03/31 03:09:06;;;;;;;;;;;6.00;97.60;;;;;;5063607;28;20135;-64
2022/03/31 03:11:31;;;;;;;;;;;6.00;97.50;;;;;;5063322;28;19938;-65
2022/03/31 03:13:57;;;;;;;;;;;6.00;97.60;;;;;;5063625;28;19916;-66
2022/03/31 03:16:24;;;;;;;;;;;6.00;97.60;;;;;;5063318;28;19916;-65
2022/03/31 03:18:52;;;;;;;;;;;6.00;97.80;;;;;;5063406;28;19915;-64
2022/03/31 03:21:19;;;;;;;;;;;5.90;97.90;;;;;;5062172;28;19967;-64
2022/03/31 03:23:45;;;;;;;;;;;5.90;98.20;;;;;;5063548;28;19979;-64
2022/03/31 03:26:11;;;;;;;;;;;5.90;98.20;;;;;;5063431;28;19908;-64
2022/03/31 03:28:37;;;;;;;;;;;5.90;98.30;;;;;;5063243;28;19909;-65
2022/03/31 03:31:06;;;;;;;;;;;5.90;98.10;;;;;;5062966;28;19947;-64
2022/03/31 03:33:32;;;;;;;;;;;6.00;98.10;;;;;;5063184;28;19931;-65
2022/03/31 03:35:59;;;;;;;;;;;6.00;98.10;;;;;;5063028;28;19908;-64
2022/03/31 03:38:25;;;;;;;;;;;5.90;98.30;;;;;;5062608;28;19971;-64
2022/03/31 03:40:51;;;;;;;;;;;6.00;98.30;;;;;;5062364;28;19913;-64
2022/03/31 03:43:17;;;;;;;;;;;5.90;98.40;;;;;;5062954;28;19908;-65
2022/03/31 03:45:43;;;;;;;;;;;5.90;98.40;;;;;;5062974;28;19912;-65
2022/03/31 03:48:10;;;;;;;;;;;5.90;98.40;;;;;;5062874;28;19913;-65
2022/03/31 03:50:36;;;;;;;;;;;5.90;98.30;;;;;;5061890;28;19909;-64
2022/03/31 03:53:03;;;;;;;;;;;5.90;98.30;;;;;;5062935;28;19909;-64
2022/03/31 03:55:30;;;;;;;;;;;5.90;98.50;;;;;;5062999;28;19912;-64
2022/03/31 03:57:56;;;;;;;;;;;5.80;98.50;;;;;;5062893;28;19951;-65
2022/03/31 04:00:22;;;;;;;;;;;5.80;98.60;;;;;;5062727;28;19913;-65
2022/03/31 04:02:48;;;;;;;;;;;5.80;98.90;;;;;;5062573;28;19932;-65
2022/03/31 04:05:13;;;;;;;;;;;5.90;98.60;;;;;;5062169;28;19909;-65
2022/03/31 04:07:39;;;;;;;;;;;5.90;98.70;;;;;;5062261;28;19908;-66
2022/03/31 04:10:05;;;;;;;;;;;5.90;98.70;;;;;;5062656;28;19916;-65
2022/03/31 04:12:31;;;;;;;;;;;5.80;98.70;;;;;;5066237;28;19931;-65
2022/03/31 04:14:57;;;;;;;;;;;5.90;98.80;;;;;;5066842;28;19909;-65
2022/03/31 04:17:22;;;;;;;;;;;5.90;98.80;;;;;;5066793;28;19909;-65
2022/03/31 04:19:48;;;;;;;;;;;5.90;98.70;;;;;;5066663;28;19909;-65
2022/03/31 04:22:14;;;;;;;;;;;5.90;98.60;;;;;;5065462;28;19920;-66
2022/03/31 04:24:39;;;;;;;;;;;5.90;98.60;;;;;;5066724;28;19908;-64
2022/03/31 04:27:05;;;;;;;;;;;5.90;98.70;;;;;;5066636;28;19916;-65
2022/03/31 04:29:31;;;;;;;;;;;5.90;98.80;;;;;;5066741;28;19913;-65
2022/03/31 04:31:56;;;;;;;;;;;5.80;98.80;;;;;;5066243;28;19944;-64
2022/03/31 04:34:22;;;;;;;;;;;5.90;98.80;;;;;;5066423;28;19916;-64
2022/03/31 04:36:48;;;;;;;;;;;5.90;98.80;;;;;;5064831;28;19920;-65
2022/03/31 04:39:13;;;;;;;;;;;5.80;99.00;;;;;;5066212;28;20424;-65
2022/03/31 04:41:42;;;;;;;;;;;5.80;99.20;;;;;;5066028;28;19944;-65
2022/03/31 04:44:08;;;;;;;;;;;5.90;99.10;;;;;;5066334;28;20105;-64
2022/03/31 04:46:35;;;;;;;;;;;5.90;98.90;;;;;;5066435;28;19940;-64
2022/03/31 04:49:01;;;;;;;;;;;5.90;98.90;;;;;;5065898;28;19947;-64
2022/03/31 04:51:26;;;;;;;;;;;5.90;99.00;;;;;;5064502;28;19940;-65
2022/03/31 04:53:52;;;;;;;;;;;5.90;99.00;;;;;;5065954;28;19959;-65
2022/03/31 04:56:18;;;;;;;;;;;5.90;98.80;;;;;;5065930;28;19909;-63
2022/03/31 04:58:44;;;;;;;;;;;5.90;98.70;;;;;;5065405;28;19975;-62
2022/03/31 05:01:10;;;;;;;;;;;5.80;98.70;;;;;;5065517;28;19919;-63
2022/03/31 05:03:39;;;;;;;;;;;5.90;98.70;;;;;;5066001;28;19947;-63
2022/03/31 05:06:06;;;;;;;;;;;5.90;98.70;;;;;;5064882;28;20114;-63
2022/03/31 05:08:32;;;;;;;;;;;5.80;98.70;;;;;;5065685;28;19940;-64
2022/03/31 05:10:57;;;;;;;;;;;5.90;98.70;;;;;;5065500;28;20146;-64
2022/03/31 05:13:23;;;;;;;;;;;5.80;98.60;;;;;;5064783;28;19908;-63
2022/03/31 05:15:49;;;;;;;;;;;5.90;98.70;;;;;;5064998;28;19917;-63
2022/03/31 05:18:14;;;;;;;;;;;5.80;98.70;;;;;;5065575;28;19955;-64
2022/03/31 05:20:42;;;;;;;;;;;5.90;98.80;;;;;;5065024;28;19919;-64
2022/03/31 05:23:09;;;;;;;;;;;5.90;98.80;;;;;;5064957;28;19919;-64
2022/03/31 05:25:34;;;;;;;;;;;5.90;99.00;;;;;;5065353;28;19908;-64
2022/03/31 05:28:00;;;;;;;;;;;5.90;98.90;;;;;;5065348;28;19915;-64
2022/03/31 05:30:26;;;;;;;;;;;5.90;98.80;;;;;;5065200;28;19909;-64
2022/03/31 05:32:53;;;;;;;;;;;5.90;98.80;;;;;;5064929;28;19932;-64
2022/03/31 05:35:19;;;;;;;;;;;6.00;98.80;;;;;;5059690;28;20108;-64
2022/03/31 05:37:45;;;;;;;;;;;5.90;98.70;;;;;;5061054;28;20207;-64
2022/03/31 05:40:11;;;;;;;;;;;5.90;98.60;;;;;;5065020;28;19947;-64
2022/03/31 05:42:37;;;;;;;;;;;5.90;98.60;;;;;;5064911;28;19955;-64
2022/03/31 05:45:03;;;;;;;;;;;5.90;98.80;;;;;;5064940;28;19943;-64
2022/03/31 05:47:29;;;;;;;;;;;5.90;98.80;;;;;;5064842;28;20148;-64
2022/03/31 05:49:55;;;;;;;;;;;6.00;98.80;;;;;;5064091;28;19916;-64
2022/03/31 05:52:21;;;;;;;;;;;6.00;98.70;;;;;;5064646;28;19947;-64
2022/03/31 05:54:50;;;;;;;;;;;6.00;98.80;;;;;;5064866;28;19936;-64
2022/03/31 05:57:16;;;;;;;;;;;6.00;98.70;;;;;;5064756;28;20262;-66
2022/03/31 05:59:41;;;;;;;;;;;6.00;98.80;;;;;;5064782;28;19908;-66
2022/03/31 06:02:08;;;;;;;;;;;5.90;98.70;;;;;;5064351;28;19913;-66
2022/03/31 06:04:33;;;;;;;;;;;6.00;98.80;;;;;;5064584;28;20115;-65
2022/03/31 06:06:59;;;;;;;;;;;6.00;98.80;;;;;;5045729;28;19920;-65
2022/03/31 06:09:25;;;;;;;;;;;6.00;98.90;;;;;;5064554;28;20208;-65
2022/03/31 06:11:50;;;;;;;;;;;6.10;98.80;;;;;;5064306;28;20104;-66
2022/03/31 06:14:16;;;;;;;;;;;6.10;98.80;;;;;;5064555;28;19909;-65
2022/03/31 06:16:42;;;;;;;;;;;6.00;98.70;;;;;;5046821;28;19912;-65
2022/03/31 06:19:10;;;;;;;;;;;6.00;98.80;;;;;;5064398;28;20219;-66
2022/03/31 06:21:36;;;;;;;;;;;6.00;99.00;;;;;;5063877;28;19920;-66
2022/03/31 06:24:03;;;;;;;;;;;6.00;98.80;;;;;;5063247;28;19940;-65
2022/03/31 06:26:29;;;;;;;;;;;6.00;98.80;;;;;;5046513;28;19909;-68
2022/03/31 06:28:55;;;;;;;;;;;6.10;98.90;;;;;;5063078;28;20116;-66
2022/03/31 06:31:24;;;;;;;;;;;6.10;99.00;;;;;;5046753;28;19928;-67
2022/03/31 06:33:50;;;;;;;;;;;6.10;98.80;;;;;;5064276;28;19947;-67
2022/03/31 06:36:16;;;;;;;;;;;6.20;98.90;;;;;;5063184;28;19915;-66
2022/03/31 06:38:42;;;;;;;;;;;6.20;99.00;;;;;;5064123;28;19909;-67
2022/03/31 06:41:10;;;;;;;;;;;6.20;98.90;;;;;;5063798;28;19913;-67
2022/03/31 06:43:37;;;;;;;;;;;6.20;98.90;;;;;;5045456;28;19933;-66
2022/03/31 06:46:03;;;;;;;;;;;6.20;98.80;;;;;;5029814;28;19909;-66
2022/03/31 06:48:32;;;;;;;;;;;6.20;98.80;;;;;;5064097;28;19919;-67
2022/03/31 06:50:58;;;;;;;;;;;6.30;98.90;;;;;;5046339;28;19916;-67
2022/03/31 06:53:24;;;;;;;;;;;6.20;99.10;;;;;;5045991;28;19946;-67
2022/03/31 06:55:50;;;;;;;;;;;6.30;98.90;;;;;;5063782;28;19909;-67
2022/03/31 06:58:16;;;;;;;;;;;6.30;99.20;;;;;;5063534;28;19972;-67
2022/03/31 07:00:42;;;;;;;;;;;6.40;99.10;;;;;;5063683;28;19917;-69
2022/03/31 07:03:08;;;;;;;;;;;6.40;99.00;;;;;;5045770;28;19909;-69
2022/03/31 07:05:37;;;;;;;;;;;6.40;98.80;;;;;;5063600;28;19909;-69
2022/03/31 07:08:04;;;;;;;;;;;6.50;98.70;;;;;;5062783;28;19909;-69
2022/03/31 07:10:29;;;;;;;;;;;6.60;98.60;;;;;;5063682;28;19909;-68
2022/03/31 07:12:55;;;;;;;;;;;6.50;98.60;;;;;;5062614;28;19909;-69
2022/03/31 07:15:21;;;;;;;;;;;6.60;98.60;;;;;;5063069;28;20208;-69
2022/03/31 07:17:47;;;;;;;;;;;6.60;98.60;;;;;;5063080;28;19976;-69
2022/03/31 07:20:13;;;;;;;;;;;6.60;98.70;;;;;;5063088;28;19924;-69
2022/03/31 07:22:45;;;;;;;;;;;6.70;98.80;;;;;;5045509;28;19916;-69
2022/03/31 07:25:11;;;;;;;;;;;6.70;98.70;;;;;;5061989;28;20223;-69
2022/03/31 07:27:40;;;;;;;;;;;6.80;98.60;;;;;;5062780;28;19909;-69
2022/03/31 07:30:07;;;;;;;;;;;6.90;98.40;;;;;;5062904;28;19909;-69
2022/03/31 07:32:33;;;;;;;;;;;6.90;98.30;;;;;;5062533;28;19908;-70
2022/03/31 07:35:00;;;;;;;;;;;7.00;98.50;;;;;;5060194;28;19920;-69
2022/03/31 07:37:26;;;;;;;;;;;7.00;98.40;;;;;;5062485;28;19916;-69
2022/03/31 07:39:52;;;;;;;;;;;7.10;98.20;;;;;;5062783;28;20218;-68
2022/03/31 07:42:18;;;;;;;;;;;7.10;98.10;;;;;;5062718;28;19913;-69
2022/03/31 07:44:43;;;;;;;;;;;7.10;97.60;;;;;;5061974;28;19913;-69
2022/03/31 07:47:09;;;;;;;;;;;7.10;97.80;;;;;;5061800;28;19935;-69
2022/03/31 07:49:35;;;;;;;;;;;7.20;97.90;;;;;;5062743;28;19921;-69
2022/03/31 07:52:01;;;;;;;;;;;7.20;97.90;;;;;;5062577;28;19915;-68
2022/03/31 07:54:27;;;;;;;;;;;7.20;97.60;;;;;;5062884;28;19912;-68
2022/03/31 07:56:53;;;;;;;;;;;7.20;97.60;;;;;;5063118;28;20228;-69
2022/03/31 07:59:23;;;;;;;;;;;7.30;97.50;;;;;;5062781;28;19909;-69
2022/03/31 08:01:49;;;;;;;;;;;7.20;97.30;;;;;;5062359;28;19921;-69
2022/03/31 08:04:16;;;;;;;;;;;7.20;97.60;;;;;;5062903;28;19940;-69
2022/03/31 08:06:43;;;;;;;;;;;7.20;97.80;;;;;;5062279;28;20077;-69
2022/03/31 08:09:12;;;;;;;;;;;7.20;97.70;;;;;;5062723;28;20108;-70
2022/03/31 08:11:38;;;;;;;;;;;7.10;98.00;;;;;;5062371;28;19909;-69
2022/03/31 08:14:04;;;;;;;;;;;7.10;98.20;;;;;;5062690;28;19909;-69
2022/03/31 08:16:31;;;;;;;;;;;7.30;97.80;;;;;;5061807;28;19915;-69
2022/03/31 08:18:57;;;;;;;;;;;7.30;97.50;;;;;;5062713;28;19916;-70
2022/03/31 08:21:23;;;;;;;;;;;7.40;97.60;;;;;;5062324;28;20297;-69
2022/03/31 08:23:49;;;;;;;;;;;7.40;97.50;;;;;;5062259;28;19943;-69
2022/03/31 08:26:14;;;;;;;;;;;7.40;97.50;;;;;;5061488;28;19909;-69
2022/03/31 08:28:40;;;;;;;;;;;7.40;97.50;;;;;;5062385;28;19979;-70
2022/03/31 08:31:06;;;;;;;;;;;7.40;97.40;;;;;;5060194;28;20151;-73
2022/03/31 08:33:31;;;;;;;;;;;7.50;97.40;;;;;;5048619;28;19909;-69
2022/03/31 08:35:57;;;;;;;;;;;7.40;97.30;;;;;;5062353;28;19976;-69
2022/03/31 08:38:23;;;;;;;;;;;7.50;97.30;;;;;;5061256;28;19909;-69
2022/03/31 08:40:49;;;;;;;;;;;7.60;96.70;;;;;;5062075;28;19917;-70
2022/03/31 08:43:14;;;;;;;;;;;7.60;96.90;;;;;;5044497;28;19915;-69
2022/03/31 08:45:40;;;;;;;;;;;7.40;97.20;;;;;;5062302;28;20200;-68
2022/03/31 08:48:06;;;;;;;;;;;7.60;96.90;;;;;;5062155;28;19963;-69
2022/03/31 08:50:33;;;;;;;;;;;7.60;96.30;;;;;;5062292;28;19940;-69
2022/03/31 08:52:59;;;;;;;;;;;7.60;96.50;;;;;;5044447;28;20143;-68
2022/03/31 08:55:25;;;;;;;;;;;7.60;96.60;;;;;;5061291;28;19948;-69
2022/03/31 08:57:52;;;;;;;;;;;7.70;96.50;;;;;;5064531;28;19915;-69
2022/03/31 09:00:20;;;;;;;;;;;7.80;96.80;;;;;;5065954;28;19917;-69
2022/03/31 09:02:59;;;;;;;;;;;7.80;95.90;;;;;;5064975;28;19915;-70
2022/03/31 09:05:25;;;;;;;;;;;8.00;95.90;;;;;;5065302;28;19979;-66
2022/03/31 09:07:59;;;;;;;;;;;7.80;95.90;;;;;;5065308;28;19946;-65
2022/03/31 09:10:29;;;;;;;;;;;8.00;96.00;;;;;;5048552;28;19916;-67
2022/03/31 09:12:55;;;;;;;;;;;8.10;95.90;;;;;;5066042;28;19940;-66
2022/03/31 09:15:21;;;;;;;;;;;8.20;94.80;;;;;;5065208;28;20222;-65
2022/03/31 09:17:53;;;;;;;;;;;8.20;94.50;;;;;;5065528;28;19909;-66
2022/03/31 09:20:20;;;;;;;;;;;8.40;94.40;;;;;;5065513;28;19917;-65
2022/03/31 09:22:48;;;;;;;;;;;8.30;94.40;;;;;;5047572;28;19916;-66
2022/03/31 09:25:27;;;;;;;;;;;8.20;94.50;;;;;;5065503;28;19923;-66
2022/03/31 09:27:53;;;;;;;;;;;8.30;94.10;;;;;;5064637;28;19909;-66
2022/03/31 09:30:19;;;;;;;;;;;8.20;94.40;;;;;;5065510;28;19985;-66
2022/03/31 09:32:51;;;;;;;;;;;8.20;94.40;;;;;;5064497;28;20175;-66
2022/03/31 09:35:23;;;;;;;;;;;8.30;94.60;;;;;;5063800;28;19909;-65
2022/03/31 09:37:51;;;;;;;;;;;8.30;94.50;;;;;;5065251;28;20276;-65
2022/03/31 09:40:19;;;;;;;;;;;8.20;94.50;;;;;;5065042;28;20115;-65
2022/03/31 09:42:56;;;;;;;;;;;8.20;94.50;;;;;;5064912;28;19947;-65
2022/03/31 09:45:22;;;;;;;;;;;8.30;93.90;;;;;;5064898;28;20335;-65
2022/03/31 09:47:51;;;;;;;;;;;8.40;93.70;;;;;;5047386;28;19951;-65
2022/03/31 09:50:18;;;;;;;;;;;8.40;93.10;;;;;;5064599;28;19916;-65
2022/03/31 09:52:44;;;;;;;;;;;8.40;92.80;;;;;;5064853;28;20306;-65
2022/03/31 09:55:10;;;;;;;;;;;8.40;93.10;;;;;;5064829;28;19909;-66
2022/03/31 09:57:37;;;;;;;;;;;8.40;93.40;;;;;;5064317;28;19944;-66
2022/03/31 10:00:05;;;;;;;;;;;8.40;93.10;;;;;;5064939;28;19909;-66
2022/03/31 10:02:32;;;;;;;;;;;8.40;93.30;;;;;;5046964;28;19988;-65
2022/03/31 10:04:57;;;;;;;;;;;8.40;92.80;;;;;;5046449;28;20200;-65
2022/03/31 10:07:23;;;;;;;;;;;8.40;92.90;;;;;;5029843;28;19944;-66
2022/03/31 10:09:49;;;;;;;;;;;8.30;93.30;;;;;;5063412;28;20111;-65
2022/03/31 10:12:17;;;;;;;;;;;8.20;93.40;;;;;;5064207;28;19947;-65
2022/03/31 10:14:57;;;;;;;;;;;8.10;93.50;;;;;;5046142;28;19913;-66
2022/03/31 10:17:27;;;;;;;;;;;8.20;93.50;;;;;;5064526;28;19949;-66
2022/03/31 10:19:52;;;;;;;;;;;8.10;93.70;;;;;;5046971;28;19917;-65
2022/03/31 10:25:08;;;;;;;;;;;8.20;93.50;;;;;;5064542;28;20218;-65
2022/03/31 10:27:36;;;;;;;;;;;8.20;93.40;;;;;;5063305;28;19960;-65
2022/03/31 10:30:13;;;;;;;;;;;8.30;93.40;;;;;;5063252;28;19969;-65
2022/03/31 10:32:59;;;;;;;;;;;8.30;93.10;;;;;;5047671;28;20208;-65
2022/03/31 10:35:25;;;;;;;;;;;8.10;93.00;;;;;;5060306;28;19909;-65
2022/03/31 10:37:52;;;;;;;;;;;8.10;93.10;;;;;;5062493;28;19928;-65
2022/03/31 10:40:31;;;;;;;;;;;8.00;93.40;;;;;;5062870;28;19975;-65
2022/03/31 10:42:57;;;;;;;;;;;8.00;93.70;;;;;;5046250;28;19982;-65
2022/03/31 10:45:32;;;;;;;;;;;8.00;93.50;;;;;;5063775;28;19912;-65
2022/03/31 10:47:58;;;;;;;;;;;8.00;93.40;;;;;;5063834;28;19920;-65
2022/03/31 10:50:25;;;;;;;;;;;8.00;93.70;;;;;;5079535;28;20146;-65
2022/03/31 10:53:00;;;;;;;;;;;8.00;94.00;;;;;;5063969;28;19962;-66
2022/03/31 10:55:58;;;;;;;;;;;8.10;93.70;;;;;;5046182;28;19915;-66
2022/03/31 10:58:30;;;;;;;;;;;8.20;94.00;;;;;;5016434;28;19915;-65
2022/03/31 11:00:57;;;;;;;;;;;8.20;93.30;;;;;;5046108;28;20282;-65
2022/03/31 11:03:23;;;;;;;;;;;8.20;93.40;;;;;;5062905;28;19916;-65
2022/03/31 11:05:49;;;;;;;;;;;8.10;93.50;;;;;;5061352;28;19909;-65
2022/03/31 11:08:18;;;;;;;;;;;8.20;93.40;;;;;;5062685;28;19915;-65
2022/03/31 11:10:49;;;;;;;;;;;8.20;93.30;;;;;;5062535;28;19909;-66
2022/03/31 11:13:16;;;;;;;;;;;8.10;93.60;;;;;;5063031;28;19986;-65
2022/03/31 11:15:46;;;;;;;;;;;8.10;93.40;;;;;;5055504;28;19916;-65
2022/03/31 11:18:11;;;;;;;;;;;8.10;93.10;;;;;;5043313;28;19910;-66
2022/03/31 11:20:37;;;;;;;;;;;8.00;93.50;;;;;;5042884;28;19913;-65
2022/03/31 11:23:09;;;;;;;;;;;8.10;93.30;;;;;;5043187;28;19912;-66
2022/03/31 11:25:35;;;;;;;;;;;8.20;93.50;;;;;;5042979;28;19955;-66
2022/03/31 11:28:09;;;;;;;;;;;8.20;93.20;;;;;;5048199;28;19912;-65
2022/03/31 11:30:34;;;;;;;;;;;8.20;92.90;;;;;;5045563;28;19978;-66
2022/03/31 11:33:01;;;;;;;;;;;8.20;92.80;;;;;;5045458;28;20143;-66
2022/03/31 11:35:27;;;;;;;;;;;8.20;93.30;;;;;;5062569;28;19932;-65
2022/03/31 11:38:00;;;;;;;;;;;8.30;93.30;;;;;;5062869;28;19915;-65
2022/03/31 11:40:28;;;;;;;;;;;8.30;93.50;;;;;;5062250;28;19909;-65
2022/03/31 11:42:56;;;;;;;;;;;8.40;93.00;;;;;;5062767;28;19908;-65
2022/03/31 11:45:43;;;;;;;;;;;8.40;92.50;;;;;;5062391;28;19940;-65
2022/03/31 11:48:16;;;;;;;;;;;8.30;92.70;;;;;;5051739;28;19975;-65
2022/03/31 11:50:51;;;;;;;;;;;8.30;92.90;;;;;;5062009;28;19920;-65
2022/03/31 11:53:25;;;;;;;;;;;8.30;92.90;;;;;;5062496;28;19909;-66
2022/03/31 11:56:00;;;;;;;;;;;8.40;93.10;;;;;;5063214;28;19909;-65
2022/03/31 11:58:27;;;;;;;;;;;8.50;92.50;;;;;;5062069;28;20138;-65
2022/03/31 12:00:54;;;;;;;;;;;8.40;92.30;;;;;;5045031;28;19917;-66
2022/03/31 12:03:19;;;;;;;;;;;8.40;92.50;;;;;;5062753;28;19944;-65
2022/03/31 12:05:58;;;;;;;;;;;8.40;92.60;;;;;;5062793;28;19916;-65
2022/03/31 12:08:25;;;;;;;;;;;8.40;92.60;;;;;;5045063;28;19915;-66
2022/03/31 12:10:51;;;;;;;;;;;8.30;92.40;;;;;;5043958;28;19908;-65
2022/03/31 12:13:17;;;;;;;;;;;8.30;92.70;;;;;;5045150;28;20285;-65
2022/03/31 12:15:43;;;;;;;;;;;8.40;92.70;;;;;;5062311;28;19916;-65
2022/03/31 12:18:13;;;;;;;;;;;8.50;92.70;;;;;;5028549;28;20235;-65
2022/03/31 12:20:39;;;;;;;;;;;8.50;92.20;;;;;;5062381;28;20208;-66
2022/03/31 12:23:19;;;;;;;;;;;8.50;92.40;;;;;;5061568;28;19908;-66
2022/03/31 12:25:45;;;;;;;;;;;8.50;92.30;;;;;;5062699;28;19909;-65
2022/03/31 12:28:11;;;;;;;;;;;8.50;92.70;;;;;;5044219;28;19915;-66
2022/03/31 12:30:58;;;;;;;;;;;8.50;93.00;;;;;;5061963;28;20283;-66
2022/03/31 12:33:28;;;;;;;;;;;8.70;92.70;;;;;;5065566;28;19909;-67
2022/03/31 12:36:02;;;;;;;;;;;8.70;92.30;;;;;;5066583;28;19912;-66
2022/03/31 12:38:33;;;;;;;;;;;8.60;92.30;;;;;;5048823;28;19912;-66
2022/03/31 12:40:59;;;;;;;;;;;8.60;92.40;;;;;;5065048;28;19913;-66
2022/03/31 12:43:25;;;;;;;;;;;8.60;92.50;;;;;;5066475;28;19917;-64
2022/03/31 12:45:51;;;;;;;;;;;8.60;92.70;;;;;;5048687;28;19940;-68
2022/03/31 12:48:16;;;;;;;;;;;8.70;92.10;;;;;;5047420;28;19912;-68
2022/03/31 12:50:44;;;;;;;;;;;8.70;92.00;;;;;;5097881;23;20117;-69
2022/03/31 12:53:09;;;;;;;;;;;8.70;92.40;;;;;;5084145;28;20103;-69
2022/03/31 12:55:36;;;;;;;;;;;8.90;91.80;;;;;;5065164;28;19916;-69
2022/03/31 12:58:03;;;;;;;;;;;8.90;91.80;;;;;;5081205;28;20027;-69
2022/03/31 13:00:31;;;;;;;;;;;8.80;91.80;;;;;;5084863;28;20115;-69
2022/03/31 13:02:57;;;;;;;;;;;8.80;91.70;;;;;;5085989;28;19909;-70
2022/03/31 13:05:23;;;;;;;;;;;8.80;91.60;;;;;;5084602;28;19979;-69
2022/03/31 13:07:53;;;;;;;;;;;8.80;92.10;;;;;;5085968;28;19908;-69
2022/03/31 13:10:20;;;;;;;;;;;8.80;92.40;;;;;;5084454;28;19908;-69
2022/03/31 13:12:46;;;;;;;;;;;8.80;92.20;;;;;;5084473;28;20119;-69
2022/03/31 13:15:13;;;;;;;;;;;8.80;91.90;;;;;;5084452;28;19909;-70
2022/03/31 13:17:42;;;;;;;;;;;8.80;92.10;;;;;;5085476;28;19908;-70
2022/03/31 13:20:09;;;;;;;;;;;8.70;91.90;;;;;;5084808;28;19908;-70
2022/03/31 13:22:36;;;;;;;;;;;8.70;92.40;;;;;;5085434;28;19912;-69
2022/03/31 13:25:02;;;;;;;;;;;8.70;92.00;;;;;;5084698;28;19909;-69
2022/03/31 13:27:28;;;;;;;;;;;8.70;92.00;;;;;;5085391;28;19908;-71
2022/03/31 13:29:55;;;;;;;;;;;8.70;92.10;;;;;;5084614;28;19915;-68
2022/03/31 13:32:21;;;;;;;;;;;8.80;92.10;;;;;;5084041;28;19950;-69
2022/03/31 13:34:47;;;;;;;;;;;9.00;91.80;;;;;;5068692;28;19913;-69
2022/03/31 13:37:18;;;;;;;;;;;9.00;91.50;;;;;;5096370;28;19913;-70
2022/03/31 13:39:44;;;;;;;;;;;9.00;91.30;;;;;;5097858;28;19909;-69
2022/03/31 13:42:10;;;;;;;;;;;8.90;91.30;;;;;;5081755;28;19924;-69
2022/03/31 13:44:36;;;;;;;;;;;8.90;91.70;;;;;;5082925;28;20207;-70
2022/03/31 13:47:03;;;;;;;;;;;8.90;91.90;;;;;;5084072;28;19908;-69
2022/03/31 13:49:29;;;;;;;;;;;9.10;91.70;;;;;;5085440;28;19908;-70
2022/03/31 13:51:55;;;;;;;;;;;9.10;91.20;;;;;;5082727;28;19912;-70
2022/03/31 13:54:21;;;;;;;;;;;9.20;91.30;;;;;;5085182;28;19909;-70
2022/03/31 13:56:48;;;;;;;;;;;9.30;91.30;;;;;;5082491;28;19944;-70
2022/03/31 14:01:59;;;;;;;;;;;9.20;90.90;;;;;;5084387;28;19951;-69
2022/03/31 14:04:25;;;;;;;;;;;9.20;91.20;;;;;;5083878;28;19909;-69
2022/03/31 14:06:51;;;;;;;;;;;9.10;91.40;;;;;;5083403;28;19939;-69
2022/03/31 14:09:19;;;;;;;;;;;9.20;91.40;;;;;;5083663;28;20112;-69
2022/03/31 14:11:45;;;;;;;;;;;9.10;91.60;;;;;;5082014;28;19923;-69
2022/03/31 14:14:13;;;;;;;;;;;9.10;91.20;;;;;;5084918;28;19909;-69
2022/03/31 14:16:40;;;;;;;;;;;9.00;91.10;;;;;;5065834;28;19908;-68
2022/03/31 14:19:07;;;;;;;;;;;8.90;91.70;;;;;;5084639;28;20015;-69
2022/03/31 14:21:33;;;;;;;;;;;8.90;91.60;;;;;;5083081;28;19976;-69
2022/03/31 14:23:59;;;;;;;;;;;8.80;91.70;;;;;;5084470;28;20223;-68
2022/03/31 14:26:24;;;;;;;;;;;8.70;91.90;;;;;;5082050;28;19946;-68
2022/03/31 14:28:50;;;;;;;;;;;8.80;91.90;;;;;;5083349;28;19908;-69
2022/03/31 14:31:23;;;;;;;;;;;8.80;91.80;;;;;;5082622;28;19909;-69
2022/03/31 14:33:49;;;;;;;;;;;8.80;91.40;;;;;;5066948;28;19915;-69
2022/03/31 14:36:15;;;;;;;;;;;8.90;91.60;;;;;;5083206;28;19982;-69
2022/03/31 14:38:41;;;;;;;;;;;8.90;91.40;;;;;;5083139;28;19912;-69
2022/03/31 14:41:09;;;;;;;;;;;9.00;91.40;;;;;;5082799;28;19947;-68
2022/03/31 14:43:38;;;;;;;;;;;9.00;91.20;;;;;;5082667;28;19915;-69
2022/03/31 14:46:07;;;;;;;;;;;9.20;91.20;;;;;;5084123;28;20230;-69
2022/03/31 14:48:33;;;;;;;;;;;9.20;90.80;;;;;;5082533;28;19909;-69